The City of Austin is in the process of converting the data from our rainfall and stream level gauges to the LCRA's Hydromet system, and the data is currently unavailable.


Flood Early Warning System
 
USGS LogoUSGS Gauges
Site Name Site Number Last Update At Gauge Level (ft) Discharge, ft3/sec Gauge Datum USGS Link
Lake Creek at Lake Creek Parkway nr Austin,TX 08105886 07/11/2020 10:30 PM 2.30 0.87 847.00 amsl, NAVD88 View in USGS
Bull Ck at Loop 360 nr Austin, TX 08154700 07/11/2020 10:45 PM 2.46 0.40 534.08 amsl, NGVD29 View in USGS
Barton Ck at SH 71 nr Oak Hill, TX 08155200 07/11/2020 10:20 PM 2.04 0.93 737.04 amsl, NGVD29 View in USGS
Barton Ck at Lost Ck Blvd nr Austin, TX 08155240 07/11/2020 10:45 PM 4.61 2.72 600.00 amsl, NGVD29 View in USGS
Barton Ck at Loop 360, Austin, TX 08155300 07/11/2020 10:45 PM 1.74 0.00 510.32 amsl, NGVD29 View in USGS
Barton Ck abv Barton Spgs at Austin, TX 08155400 07/11/2020 10:20 PM 1.69 1.77 480.00 amsl, NVGD29 View in USGS
Barton Spgs at Austin, TX 08155500 07/11/2020 10:00 PM 22.60 66.30 462.34 amsl, NGVD29 View in USGS
W Bouldin Ck at Oltorf Rd, Austin, TX 08155541 07/11/2020 10:35 PM 1.56 0.08 551.00 amsl, NAVD88 View in USGS
Shoal Ck at Silverway Dr, Austin, TX 08156675 07/11/2020 10:40 PM 1.17 0.00 672.00 amsl, NAVD88 View in USGS
Shoal Ck at W 12th St, Austin, TX 08156800 07/11/2020 10:40 PM 1.23 0.00 455.33 amsl, NGVD29 View in USGS
Waller Ck at Koenig Lane, Austin, TX 08156910 07/11/2020 10:45 PM 0.52 0.00 627.00 amsl, NAVD88 View in USGS
Colorado Rv at Austin, TX 08158000 07/11/2020 09:45 PM 12.20 503.00 402.27 amsl, NGVD29 View in USGS
Boggy Ck at Manor Rd, Austin, TX 08158030 07/11/2020 10:45 PM 0.95 0.21 530.00 amsl, NAVD88 View in USGS
Boggy Ck at Webberville Rd, Austin, TX 08158035 07/11/2020 10:35 PM 0.67 0.64 458.86 amsl, NAVD88 View in USGS
Ft Br Boggy Ck at Manor Rd, Austin, TX 08158045 07/11/2020 10:45 PM 1.24 20.00 538.00 amsl, NAVD88 View in USGS
Walnut Ck at Dessau Rd, Austin, TX 08158200 07/11/2020 10:45 PM 13.18 2390.00 553.44 amsl, NGVD29 View in USGS
Little Walnut Ck at Georgian Drive 08158380 07/11/2020 10:45 PM 0.33 0.07 637.23 ft NGVD29 View in USGS
Walnut Creek at Webberville Road 08158600 07/11/2020 10:00 PM 4.08 2.19 425.96 ft NGVD29 View in USGS
Bear Ck nr Brodie Lane nr Manchaca, TX 08158819 12/09/2010 09:05 AM 0.93 0.00 698.00 amsl, NGVD29 View in USGS
Onion Ck at Twin Creeks Rd nr Manchaca, TX 08158827 07/11/2020 10:40 PM 6.60 210.00 595.00 amsl, NGVD29 View in USGS
Slaughter Ck at FM 1826 nr Austin, TX 08158840 07/11/2020 10:45 PM 3.99 0.02 876.14 amsl, NGVD29 View in USGS
Slaughter Ck at FM 2304 nr Austin, TX 08158860 07/11/2020 10:00 PM - 0.20 0.00 654.80 amsl, NGVD29 View in USGS
Williamson Ck at Oak Hill, TX 08158920 07/11/2020 10:40 PM 2.86 0.00 798.68 amsl, NGVD29 View in USGS
Kincheon Br at William Cannon Blvd, Austin, TX 08158927 07/11/2020 10:40 PM - 0.30 0.00 695 amsl, NGVD29 View in USGS
Williamson Ck at Manchaca Rd, Austin, TX 08158930 07/11/2020 10:45 PM 7.26 1140.00 618.39 amsl, NGVD29 View in USGS
Williamson Ck at Jimmy Clay Rd, Austin, TX 08158970 07/11/2020 10:45 PM 5.10 0.00 497.18 amsl, NGVD29 View in USGS
Onion Ck at US Hwy 183, Austin, TX 08159000 07/11/2020 10:40 PM 5.03 8.90 442.85 amsl, NGVD29 View in USGS
 
Watershed Protection Home